createdAt,value
2018-02-15T00:00:03.246Z,-1.4
2018-02-15T00:05:02.561Z,-1.4
2018-02-15T00:10:03.300Z,-1.4
2018-02-15T00:15:02.559Z,-1.4
2018-02-15T00:20:02.930Z,-1.4
2018-02-15T00:25:03.213Z,-1.4
2018-02-15T00:30:02.493Z,-1.4
2018-02-15T00:35:02.880Z,-1.4
2018-02-15T00:40:02.587Z,-1.5
2018-02-15T00:45:02.815Z,-1.5
2018-02-15T00:50:03.042Z,-1.6
2018-02-15T00:55:03.299Z,-1.6
2018-02-15T01:00:02.558Z,-1.7
2018-02-15T01:05:02.874Z,-1.7
2018-02-15T01:10:02.606Z,-1.7
2018-02-15T01:15:02.830Z,-1.7
2018-02-15T01:20:03.269Z,-1.8
2018-02-15T01:25:02.478Z,-1.8
2018-02-15T01:30:03.005Z,-1.9
2018-02-15T01:35:05.564Z,-1.9
2018-02-15T01:40:03.278Z,-1.9
2018-02-15T01:45:02.632Z,-1.8
2018-02-15T01:50:02.959Z,-1.8
2018-02-15T01:55:03.237Z,-1.8
2018-02-15T02:00:02.495Z,-1.8
2018-02-15T02:05:02.719Z,-1.8
2018-02-15T02:10:02.546Z,-1.9
2018-02-15T02:15:02.773Z,-1.9
2018-02-15T02:20:03.095Z,-1.8
2018-02-15T02:25:02.439Z,-1.8
2018-02-15T02:30:02.739Z,-1.8
2018-02-15T02:35:03.011Z,-1.9
2018-02-15T02:40:02.850Z,-1.9
2018-02-15T02:45:03.098Z,-1.9
2018-02-15T02:50:02.381Z,-1.8
2018-02-15T02:55:02.760Z,-1.8
2018-02-15T03:00:03.101Z,-1.8
2018-02-15T03:05:02.348Z,-1.9
2018-02-15T03:10:03.185Z,-1.9
2018-02-15T03:15:02.398Z,-1.9
2018-02-15T03:20:02.844Z,-1.9
2018-02-15T03:25:03.099Z,-1.9
2018-02-15T03:30:02.406Z,-1.9
2018-02-15T03:35:02.682Z,-1.9
2018-02-15T03:40:02.499Z,-2
2018-02-15T03:45:02.790Z,-2.1
2018-02-15T03:50:03.058Z,-2.2
2018-02-15T03:55:02.421Z,-2.2
2018-02-15T04:00:02.739Z,-2.1
2018-02-15T04:05:03.012Z,-2.2
2018-02-15T04:10:02.832Z,-2.2
2018-02-15T04:15:03.136Z,-2.2
2018-02-15T04:20:02.568Z,-2.2
2018-02-15T04:25:02.839Z,-2.2
2018-02-15T04:30:03.102Z,-2.3
2018-02-15T04:35:02.325Z,-2.3
2018-02-15T04:40:03.152Z,-2.2
2018-02-15T04:45:02.426Z,-2.2
2018-02-15T04:50:02.711Z,-2.2
2018-02-15T04:55:02.965Z,-2.2
2018-02-15T05:00:03.275Z,-2.2
2018-02-15T05:05:02.572Z,-2.1
2018-02-15T05:10:02.314Z,-2.1
2018-02-15T05:15:02.682Z,-2.1
2018-02-15T05:20:03.060Z,-2.2
2018-02-15T05:25:03.277Z,-2.1
2018-02-15T05:30:02.492Z,-2
2018-02-15T05:35:02.880Z,-2.1
2018-02-15T05:40:05.098Z,-2.2
2018-02-15T05:45:02.782Z,-2.3
2018-02-15T05:50:05.608Z,-2.3
2018-02-15T05:55:02.444Z,-2.3
2018-02-15T06:00:02.754Z,-2.3
2018-02-15T06:05:03.006Z,-2.4
2018-02-15T06:10:02.770Z,-2.4
2018-02-15T06:15:03.060Z,-2.3
2018-02-15T06:20:02.550Z,-2.3
2018-02-15T06:25:02.835Z,-2.2
2018-02-15T06:30:02.839Z,-2.2
2018-02-15T06:35:03.090Z,-2.2
2018-02-15T06:40:02.917Z,-2.2
2018-02-15T06:45:03.189Z,-2.2
2018-02-15T06:50:02.523Z,-2.1
2018-02-15T06:55:02.815Z,-2.1
2018-02-15T07:00:03.076Z,-2
2018-02-15T07:05:02.345Z,-2.1
2018-02-15T07:10:02.432Z,-2.1
2018-02-15T07:15:05.241Z,-2.2
2018-02-15T07:20:02.623Z,-2.2
2018-02-15T07:25:02.932Z,-2.1
2018-02-15T07:30:03.234Z,-2.1
2018-02-15T07:35:02.539Z,-2.1
2018-02-15T07:40:03.307Z,-2
2018-02-15T07:45:02.654Z,-1.9
2018-02-15T07:50:05.526Z,-1.6
2018-02-15T07:55:03.223Z,-1.6
2018-02-15T08:00:02.652Z,-1.5
2018-02-15T08:05:02.921Z,-1.5
2018-02-15T08:10:02.764Z,-1.5
2018-02-15T08:15:05.559Z,-1.3
2018-02-15T08:20:02.944Z,-1.3
2018-02-15T08:25:03.245Z,-1.2
2018-02-15T08:30:02.493Z,-1.1
2018-02-15T08:35:02.921Z,-1.1
2018-02-15T08:40:02.631Z,-1.1
2018-02-15T08:45:03.033Z,-1.2
2018-02-15T08:50:03.344Z,-1.2
2018-02-15T08:55:02.741Z,-1.2
2018-02-15T09:00:03.174Z,-1.2
2018-02-15T09:05:02.535Z,-1.2
2018-02-15T09:10:03.246Z,-1.1
2018-02-15T09:15:02.517Z,-1.1
2018-02-15T09:20:02.928Z,-1
2018-02-15T09:25:05.705Z,-0.9
2018-02-15T09:30:03.039Z,-0.9
2018-02-15T09:35:03.326Z,-0.8
2018-02-15T09:40:03.196Z,-0.6
2018-02-15T09:45:02.473Z,-0.5
2018-02-15T09:50:02.744Z,-0.4
2018-02-15T09:55:02.955Z,-0.3
2018-02-15T10:00:03.246Z,-0.2
2018-02-15T10:05:02.621Z,-0.1
2018-02-15T10:10:02.494Z,0.1
2018-02-15T10:15:05.295Z,0.3
2018-02-15T10:20:02.670Z,0.3
2018-02-15T10:25:02.960Z,0.4
2018-02-15T10:30:05.762Z,0.7
2018-02-15T10:35:05.096Z,0.9
2018-02-15T10:40:02.842Z,0.8
2018-02-15T10:45:03.135Z,1
2018-02-15T10:50:02.522Z,1.2
2018-02-15T10:55:02.834Z,1.4
2018-02-15T11:00:05.733Z,1.7
2018-02-15T11:05:02.557Z,1.7
2018-02-15T11:10:03.265Z,1.7
2018-02-15T11:15:02.652Z,1.7
2018-02-15T11:20:03.085Z,1.9
2018-02-15T11:25:02.445Z,2.1
2018-02-15T11:30:02.746Z,2.2
2018-02-15T11:35:03.060Z,2.4
2018-02-15T11:40:02.872Z,2.4
2018-02-15T11:45:03.196Z,2.5
2018-02-15T11:50:02.552Z,2.8
2018-02-15T11:55:02.906Z,2.9
2018-02-15T12:00:05.786Z,3
2018-02-15T12:05:02.577Z,2.9
2018-02-15T12:10:05.844Z,3.3
2018-02-15T12:15:02.669Z,3.3
2018-02-15T12:20:03.087Z,3.3
2018-02-15T12:25:04.984Z,3.3
2018-02-15T12:30:03.371Z,3.3
2018-02-15T12:35:02.662Z,3.4
2018-02-15T12:40:02.567Z,3.2
2018-02-15T12:45:02.831Z,3.2
2018-02-15T12:50:03.079Z,3.3
2018-02-15T12:55:02.462Z,3.3
2018-02-15T13:00:02.796Z,3.3
2018-02-15T13:05:03.068Z,3.2
2018-02-15T13:10:07.930Z,3.3
2018-02-15T13:15:03.330Z,3.3
2018-02-15T13:20:02.683Z,3.2
2018-02-15T13:25:03.179Z,3.3
2018-02-15T13:30:02.486Z,3.3
2018-02-15T13:35:02.901Z,3.3
2018-02-15T13:40:02.640Z,3.3
2018-02-15T13:45:03.012Z,3.3
2018-02-15T13:50:03.329Z,3.2
2018-02-15T13:55:02.736Z,3.2
2018-02-15T14:00:03.084Z,3.2
2018-02-15T14:05:02.498Z,3.1
2018-02-15T14:10:03.321Z,3.1
2018-02-15T14:15:02.683Z,3.1
2018-02-15T14:20:03.087Z,3.1
2018-02-15T14:25:02.459Z,3.1
2018-02-15T14:30:02.751Z,3
2018-02-15T14:35:03.040Z,3
2018-02-15T14:40:05.410Z,3
2018-02-15T14:45:03.193Z,3
2018-02-15T14:50:02.528Z,3.1
2018-02-15T14:55:02.861Z,3.1
2018-02-15T15:00:03.210Z,3.1
2018-02-15T15:05:02.557Z,3
2018-02-15T15:10:02.310Z,3
2018-02-15T15:15:05.218Z,3
2018-02-15T15:20:02.649Z,2.9
2018-02-15T15:25:05.478Z,2.9
2018-02-15T15:30:02.797Z,2.9
2018-02-15T15:35:03.027Z,2.9
2018-02-15T15:40:02.862Z,2.8
2018-02-15T15:45:03.297Z,2.9
2018-02-15T15:50:02.924Z,2.9
2018-02-15T15:55:03.237Z,2.8
2018-02-15T16:00:02.525Z,2.8
2018-02-15T16:05:02.944Z,2.9
2018-02-15T16:10:02.775Z,2.8
2018-02-15T16:15:03.088Z,2.8
2018-02-15T16:20:02.583Z,2.8
2018-02-15T16:25:02.854Z,2.8
2018-02-15T16:30:03.180Z,2.7
2018-02-15T16:35:02.566Z,2.7
2018-02-15T16:40:02.490Z,2.7
2018-02-15T16:45:02.777Z,2.7
2018-02-15T16:50:03.082Z,2.7
2018-02-15T16:55:02.446Z,2.6
2018-02-15T17:00:02.755Z,2.6
2018-02-15T17:05:03.046Z,2.7
2018-02-15T17:10:02.876Z,2.7
2018-02-15T17:15:03.199Z,2.7
2018-02-15T17:20:02.580Z,2.7
2018-02-15T17:25:02.870Z,2.6
2018-02-15T17:30:03.221Z,2.5
2018-02-15T17:35:02.548Z,2.5
2018-02-15T17:40:04.972Z,2.3
2018-02-15T17:45:02.712Z,2.2
2018-02-15T17:50:03.041Z,2.2
2018-02-15T17:55:02.437Z,2.2
2018-02-15T18:00:02.759Z,2.2
2018-02-15T18:05:03.211Z,2.1
2018-02-15T18:10:02.938Z,2
2018-02-15T18:15:03.348Z,2
2018-02-15T18:20:02.732Z,2
2018-02-15T18:25:03.042Z,2
2018-02-15T18:30:03.370Z,2
2018-02-15T18:35:02.622Z,2
2018-02-15T18:40:02.512Z,2
2018-02-15T18:45:05.327Z,1.7
2018-02-15T18:50:02.610Z,1.7
2018-02-15T18:55:02.907Z,1.7
2018-02-15T19:00:03.227Z,1.6
2018-02-15T19:05:02.585Z,1.6
2018-02-15T19:10:02.488Z,1.5
2018-02-15T19:15:02.753Z,1.5
2018-02-15T19:20:03.265Z,1.5
2018-02-15T19:25:02.500Z,1.5
2018-02-15T19:30:02.803Z,1.5
2018-02-15T19:35:03.227Z,1.5
2018-02-15T19:40:02.917Z,1.5
2018-02-15T19:45:03.214Z,1.5
2018-02-15T19:50:02.555Z,1.5
2018-02-15T19:55:02.880Z,1.5
2018-02-15T20:00:03.196Z,1.6
2018-02-15T20:05:05.086Z,1.5
2018-02-15T20:10:02.858Z,1.5
2018-02-15T20:15:03.235Z,1.5
2018-02-15T20:20:02.595Z,1.5
2018-02-15T20:25:03.002Z,1.5
2018-02-15T20:30:03.354Z,1.5
2018-02-15T20:35:02.640Z,1.5
2018-02-15T20:40:02.500Z,1.4
2018-02-15T20:45:02.787Z,1.4
2018-02-15T20:50:03.062Z,1.4
2018-02-15T20:55:02.484Z,1.4
2018-02-15T21:00:02.846Z,1.4
2018-02-15T21:05:03.251Z,1.4
2018-02-15T21:10:02.928Z,1.4
2018-02-15T21:15:03.320Z,1.4
2018-02-15T21:20:02.860Z,1.4
2018-02-15T21:25:03.162Z,1.4
2018-02-15T21:30:02.454Z,1.4
2018-02-15T21:35:02.722Z,1.4
2018-02-15T21:40:02.527Z,1.5
2018-02-15T21:45:02.811Z,1.5
2018-02-15T21:50:05.634Z,1.5
2018-02-15T21:55:02.454Z,1.5
2018-02-15T22:00:02.785Z,1.5
2018-02-15T22:05:03.046Z,1.5
2018-02-15T22:10:02.858Z,1.5
2018-02-15T22:15:03.172Z,1.5
2018-02-15T22:20:02.596Z,1.5
2018-02-15T22:25:02.904Z,1.6
2018-02-15T22:30:03.211Z,1.6
2018-02-15T22:35:02.561Z,1.6
2018-02-15T22:40:02.318Z,1.7
2018-02-15T22:45:02.693Z,1.7
2018-02-15T22:50:03.011Z,1.7
2018-02-15T22:55:07.471Z,1.7
2018-02-15T23:00:02.789Z,1.8
2018-02-15T23:05:03.215Z,1.8
2018-02-15T23:10:02.925Z,1.8
2018-02-15T23:15:05.749Z,1.9
2018-02-15T23:20:03.211Z,1.9
2018-02-15T23:25:02.482Z,1.9
2018-02-15T23:30:02.844Z,2
2018-02-15T23:35:03.234Z,2
2018-02-15T23:40:02.945Z,2
2018-02-15T23:45:03.278Z,2
2018-02-15T23:50:02.643Z,2.1
2018-02-15T23:55:02.937Z,2.1
